createdAt,value
2018-10-12T00:00:05.996Z,26.20
2018-10-12T00:02:33.794Z,32.27
2018-10-12T00:05:01.592Z,26.03
2018-10-12T00:07:29.419Z,28.93
2018-10-12T00:09:57.216Z,25.30
2018-10-12T00:12:25.037Z,26.60
2018-10-12T00:14:52.930Z,29.97
2018-10-12T00:17:20.746Z,32.30
2018-10-12T00:19:48.566Z,30.27
2018-10-12T00:22:16.398Z,27.47
2018-10-12T00:24:44.171Z,26.67
2018-10-12T00:27:11.974Z,22.90
2018-10-12T00:29:39.754Z,24.43
2018-10-12T00:32:07.627Z,25.17
2018-10-12T00:34:35.393Z,26.43
2018-10-12T00:37:03.195Z,25.77
2018-10-12T00:39:31.055Z,25.57
2018-10-12T00:41:58.824Z,26.90
2018-10-12T00:44:26.666Z,25.40
2018-10-12T00:46:54.465Z,26.57
2018-10-12T00:49:22.312Z,25.80
2018-10-12T00:51:50.124Z,26.40
2018-10-12T00:54:17.910Z,28.00
2018-10-12T00:56:45.697Z,26.57
2018-10-12T00:59:13.461Z,32.37
2018-10-12T01:01:41.252Z,26.40
2018-10-12T01:04:09.316Z,25.93
2018-10-12T01:06:37.204Z,33.60
2018-10-12T01:09:05.147Z,26.87
2018-10-12T01:11:33.185Z,31.40
2018-10-12T01:14:01.054Z,24.67
2018-10-12T01:16:28.844Z,24.80
2018-10-12T01:18:56.682Z,26.23
2018-10-12T01:21:24.514Z,25.33
2018-10-12T01:23:52.395Z,24.53
2018-10-12T01:26:20.254Z,24.93
2018-10-12T01:28:50.826Z,26.57
2018-10-12T01:31:18.862Z,24.23
2018-10-12T01:33:46.670Z,24.47
2018-10-12T01:36:14.500Z,23.90
2018-10-12T01:38:42.380Z,22.63
2018-10-12T01:41:10.252Z,21.90
2018-10-12T01:43:38.043Z,21.77
2018-10-12T01:46:05.928Z,23.90
2018-10-12T01:48:33.760Z,23.83
2018-10-12T01:51:01.563Z,48.63
2018-10-12T01:53:29.403Z,29.13
2018-10-12T01:56:03.471Z,25.73
2018-10-12T01:58:31.977Z,23.80
2018-10-12T02:00:59.990Z,28.27
2018-10-12T02:03:27.866Z,26.50
2018-10-12T02:05:55.631Z,24.40
2018-10-12T02:08:23.429Z,27.77
2018-10-12T02:10:51.266Z,25.90
2018-10-12T02:13:19.062Z,26.20
2018-10-12T02:15:46.911Z,28.60
2018-10-12T02:18:14.783Z,26.67
2018-10-12T02:20:42.633Z,24.27
2018-10-12T02:23:10.429Z,25.40
2018-10-12T02:25:38.201Z,23.67
2018-10-12T02:28:05.995Z,22.17
2018-10-12T02:30:33.817Z,22.37
2018-10-12T02:33:01.625Z,22.67
2018-10-12T02:35:29.443Z,22.60
2018-10-12T02:37:57.367Z,22.67
2018-10-12T02:40:25.160Z,30.93
2018-10-12T02:42:53.347Z,24.30
2018-10-12T02:45:21.136Z,26.50
2018-10-12T02:47:48.926Z,29.13
2018-10-12T02:50:16.762Z,29.37
2018-10-12T02:52:44.538Z,29.00
2018-10-12T02:55:12.391Z,24.40
2018-10-12T02:57:40.229Z,27.80
2018-10-12T03:00:08.548Z,24.50
2018-10-12T03:02:36.349Z,24.97
2018-10-12T03:05:04.126Z,24.33
2018-10-12T03:07:31.940Z,27.27
2018-10-12T03:09:59.714Z,22.27
2018-10-12T03:12:27.591Z,21.67
2018-10-12T03:14:55.674Z,24.20
2018-10-12T03:17:23.462Z,28.67
2018-10-12T03:19:51.285Z,25.33
2018-10-12T03:22:19.124Z,20.97
2018-10-12T03:24:46.913Z,23.63
2018-10-12T03:27:14.739Z,22.83
2018-10-12T03:29:42.927Z,23.80
2018-10-12T03:32:10.779Z,24.60
2018-10-12T03:34:38.623Z,23.07
2018-10-12T03:37:06.568Z,22.67
2018-10-12T03:39:34.367Z,23.57
2018-10-12T03:42:02.398Z,21.97
2018-10-12T03:44:30.157Z,21.87
2018-10-12T03:46:58.055Z,21.30
2018-10-12T03:49:25.831Z,22.00
2018-10-12T03:51:53.704Z,20.57
2018-10-12T03:54:21.518Z,21.53
2018-10-12T03:56:49.281Z,22.80
2018-10-12T03:59:17.118Z,23.40
2018-10-12T04:01:44.886Z,21.17
2018-10-12T04:04:12.714Z,25.27
2018-10-12T04:06:40.554Z,27.80
2018-10-12T04:09:08.679Z,22.70
2018-10-12T04:11:36.542Z,22.87
2018-10-12T04:14:04.328Z,22.17
2018-10-12T04:16:32.103Z,21.97
2018-10-12T04:18:59.919Z,23.30
2018-10-12T04:21:27.695Z,25.07
2018-10-12T04:23:55.526Z,23.07
2018-10-12T04:26:23.294Z,21.57
2018-10-12T04:28:51.098Z,22.70
2018-10-12T04:31:18.943Z,20.63
2018-10-12T04:33:46.820Z,23.03
2018-10-12T04:36:14.663Z,22.17
2018-10-12T04:38:47.801Z,22.03
2018-10-12T04:41:20.100Z,21.30
2018-10-12T04:43:49.463Z,22.60
2018-10-12T04:46:19.021Z,22.13
2018-10-12T04:48:47.177Z,21.73
2018-10-12T04:51:16.507Z,22.03
2018-10-12T04:53:44.383Z,22.77
2018-10-12T04:56:13.900Z,21.97
2018-10-12T04:58:42.470Z,23.50
2018-10-12T05:01:10.680Z,22.27
2018-10-12T05:03:38.457Z,22.30
2018-10-12T05:06:06.858Z,23.43
2018-10-12T05:08:35.264Z,23.70
2018-10-12T05:11:03.161Z,23.47
2018-10-12T05:13:31.910Z,23.80
2018-10-12T05:15:59.748Z,24.73
2018-10-12T05:18:27.567Z,25.47
2018-10-12T05:20:55.421Z,23.43
2018-10-12T05:23:23.203Z,23.67
2018-10-12T05:25:51.010Z,22.67
2018-10-12T05:28:18.970Z,24.43
2018-10-12T05:30:46.743Z,22.73
2018-10-12T05:33:14.551Z,20.93
2018-10-12T05:35:42.347Z,21.47
2018-10-12T05:38:10.188Z,19.97
2018-10-12T05:40:38.070Z,21.00
2018-10-12T05:43:06.026Z,21.77
2018-10-12T05:45:33.814Z,22.13
2018-10-12T05:48:07.016Z,26.63
2018-10-12T05:50:34.889Z,22.03
2018-10-12T05:53:02.738Z,18.47
2018-10-12T05:55:30.556Z,18.47
2018-10-12T05:57:58.491Z,24.17
2018-10-12T06:00:26.323Z,19.70
2018-10-12T06:02:54.118Z,21.53
2018-10-12T06:05:21.923Z,20.17
2018-10-12T06:07:49.706Z,18.67
2018-10-12T06:10:17.491Z,18.70
2018-10-12T06:12:45.355Z,20.93
2018-10-12T06:15:13.185Z,19.57
2018-10-12T06:17:40.974Z,18.63
2018-10-12T06:20:08.787Z,19.13
2018-10-12T06:22:36.571Z,18.57
2018-10-12T06:25:04.396Z,18.93
2018-10-12T06:27:32.183Z,18.50
2018-10-12T06:30:00.067Z,18.73
2018-10-12T06:32:27.847Z,20.90
2018-10-12T06:34:55.670Z,20.03
2018-10-12T06:37:23.546Z,20.47
2018-10-12T06:39:51.426Z,20.23
2018-10-12T06:42:19.237Z,18.73
2018-10-12T06:44:47.020Z,21.57
2018-10-12T06:47:14.922Z,24.60
2018-10-12T06:49:42.706Z,21.97
2018-10-12T06:52:10.701Z,22.97
2018-10-12T06:54:38.570Z,21.40
2018-10-12T06:57:06.397Z,20.70
2018-10-12T06:59:34.199Z,19.87
2018-10-12T07:02:02.032Z,18.57
2018-10-12T07:04:29.926Z,17.50
2018-10-12T07:06:57.724Z,16.27
2018-10-12T07:09:25.525Z,16.47
2018-10-12T07:11:53.330Z,16.93
2018-10-12T07:14:21.138Z,16.53
2018-10-12T07:16:49.305Z,15.93
2018-10-12T07:19:16.871Z,17.67
2018-10-12T07:21:44.841Z,16.07
2018-10-12T07:24:12.605Z,14.83
2018-10-12T07:26:40.453Z,15.83
2018-10-12T07:29:08.267Z,18.10
2018-10-12T07:31:36.157Z,16.60
2018-10-12T07:34:03.917Z,16.43
2018-10-12T07:36:31.682Z,16.77
2018-10-12T07:38:59.527Z,17.13
2018-10-12T07:41:27.363Z,15.80
2018-10-12T07:43:55.153Z,16.93
2018-10-12T07:46:22.995Z,16.77
2018-10-12T07:48:50.758Z,17.87
2018-10-12T07:51:18.600Z,18.50
2018-10-12T07:53:46.422Z,16.77
2018-10-12T07:56:14.316Z,17.17
2018-10-12T07:58:42.129Z,16.83
2018-10-12T08:01:09.918Z,16.80
2018-10-12T08:03:37.741Z,16.87
2018-10-12T08:06:05.648Z,18.43
2018-10-12T08:08:33.405Z,17.37
2018-10-12T08:11:01.202Z,18.33
2018-10-12T08:13:29.040Z,17.17
2018-10-12T08:15:58.030Z,17.27
2018-10-12T08:18:26.435Z,19.17
2018-10-12T08:20:54.782Z,18.47
2018-10-12T08:23:22.625Z,18.07
2018-10-12T08:25:50.745Z,18.10
2018-10-12T08:28:18.814Z,17.97
2018-10-12T08:30:46.690Z,18.60
2018-10-12T08:33:14.453Z,19.33
2018-10-12T08:35:42.267Z,18.17
2018-10-12T08:38:10.265Z,18.20
2018-10-12T08:40:38.071Z,19.00
2018-10-12T08:43:06.135Z,17.53
2018-10-12T08:45:34.185Z,17.80
2018-10-12T08:48:01.935Z,17.43
2018-10-12T08:50:29.738Z,18.07
2018-10-12T08:52:57.506Z,18.33
2018-10-12T08:55:25.329Z,17.90
2018-10-12T08:57:53.197Z,17.03
2018-10-12T09:00:21.011Z,19.00
2018-10-12T09:02:48.843Z,17.27
2018-10-12T09:05:16.703Z,16.77
2018-10-12T09:07:44.466Z,18.53
2018-10-12T09:10:12.226Z,17.63
2018-10-12T09:12:40.014Z,16.77
2018-10-12T09:15:08.036Z,17.67
2018-10-12T09:17:36.495Z,16.60
2018-10-12T09:20:04.636Z,16.80
2018-10-12T09:22:32.485Z,16.73
2018-10-12T09:25:00.375Z,17.47
2018-10-12T09:27:28.191Z,17.03
2018-10-12T09:29:56.006Z,17.60
2018-10-12T09:32:23.771Z,16.47
2018-10-12T09:34:51.565Z,16.53
2018-10-12T09:37:19.345Z,16.87
2018-10-12T09:39:47.210Z,17.07
2018-10-12T09:42:14.989Z,16.03
2018-10-12T09:44:42.813Z,15.60
2018-10-12T09:47:10.613Z,15.93
2018-10-12T09:49:38.417Z,15.23
2018-10-12T09:52:06.250Z,16.27
2018-10-12T09:54:34.062Z,15.73
2018-10-12T09:57:07.127Z,15.70
2018-10-12T09:59:34.914Z,16.17
2018-10-12T10:02:08.003Z,15.83
2018-10-12T10:04:36.174Z,15.17
2018-10-12T10:07:04.802Z,18.90
2018-10-12T10:09:32.629Z,13.87
2018-10-12T10:12:00.402Z,13.73
2018-10-12T10:14:28.881Z,13.87
2018-10-12T10:16:56.679Z,14.27
2018-10-12T10:19:24.582Z,13.40
2018-10-12T10:21:52.305Z,13.23
2018-10-12T10:24:20.219Z,13.87
2018-10-12T10:26:48.844Z,13.20
2018-10-12T10:29:16.126Z,12.63
2018-10-12T10:31:43.893Z,13.43
2018-10-12T10:34:11.734Z,13.27
2018-10-12T10:36:39.586Z,12.20
2018-10-12T10:39:08.390Z,12.63
2018-10-12T10:41:36.110Z,12.17
2018-10-12T10:44:03.906Z,12.30
2018-10-12T10:46:31.683Z,11.80
2018-10-12T10:48:59.484Z,13.37
2018-10-12T10:51:27.353Z,12.97
2018-10-12T10:53:55.186Z,13.83
2018-10-12T10:56:22.987Z,12.33
2018-10-12T10:58:50.827Z,11.73
2018-10-12T11:01:18.952Z,12.63
2018-10-12T11:03:46.794Z,11.83
2018-10-12T11:06:14.657Z,11.90
2018-10-12T11:08:42.382Z,12.27
2018-10-12T11:11:10.277Z,12.67
2018-10-12T11:13:38.042Z,13.10
2018-10-12T11:16:05.846Z,12.07
2018-10-12T11:18:33.725Z,12.63
2018-10-12T11:21:01.494Z,12.13
2018-10-12T11:23:29.324Z,12.43
2018-10-12T11:25:57.089Z,10.67
2018-10-12T11:28:24.910Z,12.73
2018-10-12T11:30:52.752Z,11.37
2018-10-12T11:33:20.550Z,11.13
2018-10-12T11:35:48.407Z,11.30
2018-10-12T11:38:16.199Z,11.87
2018-10-12T11:40:44.090Z,11.20
2018-10-12T11:43:17.370Z,12.37
2018-10-12T11:45:45.249Z,11.63
2018-10-12T11:48:13.020Z,11.67
2018-10-12T11:50:40.806Z,11.47
2018-10-12T11:53:08.656Z,11.73
2018-10-12T11:55:36.449Z,12.10
2018-10-12T11:58:04.616Z,12.63
2018-10-12T12:00:32.395Z,11.93
2018-10-12T12:03:00.284Z,12.80
2018-10-12T12:05:28.067Z,12.37
2018-10-12T12:07:55.859Z,11.93
2018-10-12T12:10:23.760Z,11.43
2018-10-12T12:12:51.483Z,11.87
2018-10-12T12:15:19.317Z,12.17
2018-10-12T12:17:47.128Z,12.17
2018-10-12T12:20:15.010Z,11.53
2018-10-12T12:22:42.769Z,12.07
2018-10-12T12:25:10.579Z,11.23
2018-10-12T12:27:38.358Z,10.47
2018-10-12T12:30:06.188Z,10.87
2018-10-12T12:32:33.976Z,10.93
2018-10-12T12:35:01.935Z,10.80
2018-10-12T12:37:29.642Z,11.07
2018-10-12T12:39:57.411Z,10.67
2018-10-12T12:42:25.238Z,9.93
2018-10-12T12:44:53.023Z,9.87
2018-10-12T12:47:20.824Z,9.03
2018-10-12T12:49:48.684Z,10.20
2018-10-12T12:52:16.449Z,10.73
2018-10-12T12:54:44.302Z,9.13
2018-10-12T12:57:12.142Z,9.00
2018-10-12T12:59:40.029Z,8.63
2018-10-12T13:02:07.786Z,9.03
2018-10-12T13:04:35.577Z,8.73
2018-10-12T13:07:03.368Z,9.07
2018-10-12T13:09:31.152Z,10.60
2018-10-12T13:11:58.954Z,17.60
2018-10-12T13:14:26.769Z,13.30
2018-10-12T13:16:54.637Z,9.90
2018-10-12T13:19:22.393Z,8.63
2018-10-12T13:21:50.220Z,8.60
2018-10-12T13:24:24.615Z,9.43
2018-10-12T13:26:52.479Z,10.63
2018-10-12T13:29:20.265Z,9.87
2018-10-12T13:31:48.044Z,8.93
2018-10-12T13:34:15.903Z,9.60
2018-10-12T13:36:43.790Z,10.27
2018-10-12T13:39:12.805Z,11.07
2018-10-12T13:41:40.626Z,9.60
2018-10-12T13:44:08.977Z,9.97
2018-10-12T13:46:37.943Z,9.47
2018-10-12T13:49:06.371Z,9.37
2018-10-12T13:51:34.495Z,9.33
2018-10-12T13:54:02.558Z,9.80
2018-10-12T13:56:30.359Z,9.47
2018-10-12T13:58:58.306Z,9.67
2018-10-12T14:01:26.164Z,9.23
2018-10-12T14:03:53.985Z,10.27
2018-10-12T14:06:21.808Z,10.50
2018-10-12T14:08:49.625Z,10.50
2018-10-12T14:11:17.463Z,9.77
2018-10-12T14:13:45.320Z,9.70
2018-10-12T14:16:13.332Z,10.30
2018-10-12T14:18:41.374Z,10.37
2018-10-12T14:21:09.086Z,10.53
2018-10-12T14:23:37.227Z,9.37
2018-10-12T14:26:05.110Z,9.77
2018-10-12T14:28:33.093Z,10.20
2018-10-12T14:31:00.967Z,9.80
2018-10-12T14:33:29.048Z,10.47
2018-10-12T14:35:56.909Z,10.33
2018-10-12T14:38:24.670Z,12.00
2018-10-12T14:40:52.485Z,11.40
2018-10-12T14:43:20.352Z,11.63
2018-10-12T14:45:48.156Z,11.10
2018-10-12T14:48:16.106Z,9.93
2018-10-12T14:53:18.066Z,10.77
2018-10-12T14:55:45.864Z,11.30
2018-10-12T14:58:13.726Z,12.00
2018-10-12T15:00:41.533Z,10.97
2018-10-12T15:03:09.321Z,10.73
2018-10-12T15:05:37.198Z,10.47
2018-10-12T15:08:04.983Z,10.40
2018-10-12T15:10:32.861Z,10.33
2018-10-12T15:13:00.647Z,10.50
2018-10-12T15:15:29.317Z,10.53
2018-10-12T15:17:57.940Z,11.33
2018-10-12T15:20:25.737Z,10.93
2018-10-12T15:22:53.634Z,11.33
2018-10-12T15:25:21.527Z,10.07
2018-10-12T15:27:49.342Z,10.03
2018-10-12T15:30:17.639Z,9.17
2018-10-12T15:32:45.422Z,9.47
2018-10-12T15:35:13.299Z,20.07
2018-10-12T15:37:42.691Z,15.57
2018-10-12T15:40:10.879Z,13.20
2018-10-12T15:42:39.071Z,12.47
2018-10-12T15:45:06.906Z,15.07
2018-10-12T15:47:35.022Z,15.20
2018-10-12T15:50:06.031Z,15.10
2018-10-12T15:52:33.870Z,15.27
2018-10-12T15:55:01.894Z,23.10
2018-10-12T15:57:30.984Z,20.13
2018-10-12T15:59:58.792Z,16.27
2018-10-12T16:02:26.567Z,14.53
2018-10-12T16:04:54.398Z,12.63
2018-10-12T16:07:22.187Z,12.43
2018-10-12T16:09:51.115Z,13.17
2018-10-12T16:12:19.949Z,15.53
2018-10-12T16:14:47.796Z,14.03
2018-10-12T16:17:15.601Z,13.13
2018-10-12T16:19:43.525Z,12.63
2018-10-12T16:22:11.434Z,11.90
2018-10-12T16:24:44.553Z,12.40
2018-10-12T16:27:12.449Z,12.20
2018-10-12T16:29:40.190Z,13.43
2018-10-12T16:32:08.009Z,11.90
2018-10-12T16:34:35.788Z,12.20
2018-10-12T16:37:03.601Z,12.83
2018-10-12T16:39:31.518Z,13.63
2018-10-12T16:41:59.281Z,13.00
2018-10-12T16:44:27.119Z,13.40
2018-10-12T16:46:54.917Z,17.37
2018-10-12T16:49:22.750Z,10.57
2018-10-12T16:51:50.593Z,12.13
2018-10-12T16:54:18.377Z,10.30
2018-10-12T16:56:46.159Z,9.53
2018-10-12T16:59:13.939Z,9.73
2018-10-12T17:01:41.768Z,9.40
2018-10-12T17:04:09.550Z,9.30
2018-10-12T17:06:37.331Z,9.17
2018-10-12T17:09:05.633Z,9.07
2018-10-12T17:11:33.418Z,8.77
2018-10-12T17:14:01.258Z,8.70
2018-10-12T17:16:29.051Z,9.10
2018-10-12T17:18:56.937Z,9.33
2018-10-12T17:21:24.698Z,8.87
2018-10-12T17:23:52.454Z,8.73
2018-10-12T17:26:20.229Z,9.73
2018-10-12T17:28:47.995Z,9.57
2018-10-12T17:31:15.777Z,11.77
2018-10-12T17:33:43.583Z,12.50
2018-10-12T17:36:11.466Z,12.47
2018-10-12T17:38:39.226Z,12.37
2018-10-12T17:41:11.498Z,12.90
2018-10-12T17:43:39.282Z,12.83
2018-10-12T17:46:07.099Z,9.30
2018-10-12T17:48:34.987Z,11.20
2018-10-12T17:51:02.810Z,11.30
2018-10-12T17:53:30.683Z,10.53
2018-10-12T17:55:58.462Z,10.60
2018-10-12T17:58:26.278Z,13.13
2018-10-12T18:00:54.145Z,11.73
2018-10-12T18:03:21.898Z,11.57
2018-10-12T18:05:49.691Z,11.93
2018-10-12T18:08:17.512Z,10.87
2018-10-12T18:10:45.374Z,17.97
2018-10-12T18:13:13.194Z,20.03
2018-10-12T18:15:40.987Z,17.87
2018-10-12T18:18:08.779Z,18.90
2018-10-12T18:20:36.586Z,19.00
2018-10-12T18:23:04.378Z,18.67
2018-10-12T18:25:32.242Z,20.50
2018-10-12T18:28:00.122Z,17.87
2018-10-12T18:30:28.762Z,17.30
2018-10-12T18:32:56.540Z,18.13
2018-10-12T18:35:24.330Z,20.77
2018-10-12T18:37:52.105Z,23.80
2018-10-12T18:40:19.893Z,23.37
2018-10-12T18:42:47.769Z,26.13
2018-10-12T18:45:15.628Z,24.57
2018-10-12T18:47:43.426Z,25.83
2018-10-12T18:50:11.368Z,22.50
2018-10-12T18:52:39.219Z,21.37
2018-10-12T18:55:06.990Z,18.47
2018-10-12T18:57:35.567Z,17.60
2018-10-12T19:00:04.632Z,21.97
2018-10-12T19:02:32.693Z,21.20
2018-10-12T19:05:00.635Z,22.07
2018-10-12T19:07:28.329Z,23.60
2018-10-12T19:09:56.205Z,22.47
2018-10-12T19:12:23.988Z,28.83
2018-10-12T19:14:51.883Z,46.83
2018-10-12T19:17:19.705Z,35.43
2018-10-12T19:19:47.538Z,30.83
2018-10-12T19:22:15.415Z,31.90
2018-10-12T19:24:43.199Z,27.80
2018-10-12T19:27:10.961Z,45.63
2018-10-12T19:29:38.797Z,57.03
2018-10-12T19:32:07.267Z,76.30
2018-10-12T19:34:35.038Z,26.20
2018-10-12T19:37:02.809Z,18.77
2018-10-12T19:39:30.642Z,17.27
2018-10-12T19:41:59.081Z,16.13
2018-10-12T19:44:26.858Z,15.97
2018-10-12T19:46:54.642Z,19.07
2018-10-12T19:49:22.407Z,17.17
2018-10-12T19:51:50.190Z,16.83
2018-10-12T19:54:17.965Z,16.97
2018-10-12T19:56:45.956Z,17.30
2018-10-12T19:59:13.886Z,15.20
2018-10-12T20:01:41.753Z,16.27
2018-10-12T20:04:09.506Z,15.60
2018-10-12T20:06:37.390Z,16.40
2018-10-12T20:09:06.625Z,16.60
2018-10-12T20:11:34.394Z,17.77
2018-10-12T20:14:02.258Z,16.60
2018-10-12T20:16:30.046Z,14.87
2018-10-12T20:18:57.843Z,15.37
2018-10-12T20:21:25.695Z,15.63
2018-10-12T20:23:53.527Z,15.53
2018-10-12T20:26:21.387Z,26.53
2018-10-12T20:28:49.163Z,22.50
2018-10-12T20:31:17.060Z,23.90
2018-10-12T20:33:44.866Z,20.13
2018-10-12T20:36:12.637Z,20.97
2018-10-12T20:38:40.557Z,19.90
2018-10-12T20:41:08.381Z,17.67
2018-10-12T20:43:36.170Z,16.57
2018-10-12T20:46:04.055Z,15.03
2018-10-12T20:48:31.840Z,15.53
2018-10-12T20:50:59.652Z,15.37
2018-10-12T20:53:27.714Z,15.63
2018-10-12T20:55:55.735Z,13.80
2018-10-12T20:58:23.519Z,14.37
2018-10-12T21:00:51.337Z,14.77
2018-10-12T21:03:19.218Z,13.60
2018-10-12T21:05:47.001Z,14.07
2018-10-12T21:08:14.803Z,13.57
2018-10-12T21:10:42.600Z,14.07
2018-10-12T21:13:10.451Z,14.40
2018-10-12T21:15:38.251Z,22.77
2018-10-12T21:18:06.247Z,21.90
2018-10-12T21:20:33.993Z,31.57
2018-10-12T21:23:01.784Z,32.03
2018-10-12T21:25:29.604Z,20.00
2018-10-12T21:27:57.391Z,20.93
2018-10-12T21:30:25.255Z,35.53
2018-10-12T21:32:53.044Z,15.20
2018-10-12T21:35:20.818Z,15.97
2018-10-12T21:37:48.635Z,17.23
2018-10-12T21:40:16.473Z,18.03
2018-10-12T21:42:44.236Z,17.77
2018-10-12T21:45:12.126Z,17.80
2018-10-12T21:47:40.021Z,23.33
2018-10-12T21:50:07.883Z,18.67
2018-10-12T21:52:35.683Z,17.70
2018-10-12T21:55:03.618Z,16.60
2018-10-12T21:57:31.424Z,16.87
2018-10-12T21:59:59.257Z,15.50
2018-10-12T22:02:27.587Z,18.07
2018-10-12T22:04:55.442Z,15.77
2018-10-12T22:07:23.283Z,19.27
2018-10-12T22:09:51.039Z,19.83
2018-10-12T22:12:18.845Z,19.83
2018-10-12T22:14:46.631Z,16.63
2018-10-12T22:17:14.457Z,17.60
2018-10-12T22:19:42.237Z,16.87
2018-10-12T22:22:16.852Z,14.87
2018-10-12T22:24:44.627Z,14.43
2018-10-12T22:27:12.490Z,13.57
2018-10-12T22:29:40.407Z,12.20
2018-10-12T22:32:08.199Z,12.67
2018-10-12T22:34:35.994Z,12.33
2018-10-12T22:37:03.794Z,12.00
2018-10-12T22:39:31.658Z,12.90
2018-10-12T22:41:59.525Z,11.33
2018-10-12T22:44:27.580Z,11.80
2018-10-12T22:46:59.764Z,13.57
2018-10-12T22:49:27.553Z,12.83
2018-10-12T22:51:55.363Z,12.00
2018-10-12T22:54:23.159Z,12.47
2018-10-12T22:56:51.022Z,12.23
2018-10-12T22:59:18.812Z,12.30
2018-10-12T23:01:46.646Z,11.37
2018-10-12T23:04:14.445Z,11.57
2018-10-12T23:06:42.218Z,11.73
2018-10-12T23:09:10.447Z,11.13
2018-10-12T23:11:38.522Z,11.47
2018-10-12T23:14:06.806Z,11.43
2018-10-12T23:16:34.685Z,10.93
2018-10-12T23:19:02.525Z,12.47
2018-10-12T23:21:30.780Z,11.90
2018-10-12T23:23:58.818Z,11.13
2018-10-12T23:26:26.656Z,11.63
2018-10-12T23:28:54.460Z,11.37
2018-10-12T23:31:22.240Z,11.37
2018-10-12T23:33:55.454Z,10.83
2018-10-12T23:36:23.232Z,10.83
2018-10-12T23:38:57.814Z,11.60
2018-10-12T23:41:27.324Z,10.67
2018-10-12T23:43:56.667Z,11.40
2018-10-12T23:46:24.466Z,11.07
2018-10-12T23:48:52.257Z,11.07
2018-10-12T23:51:20.115Z,12.67
2018-10-12T23:53:47.936Z,12.53
2018-10-12T23:56:15.751Z,12.57
2018-10-12T23:58:43.588Z,12.10
